sensor_id;sensor_type;location;lat;lon;timestamp;pressure;altitude;pressure_sealevel;temperature;humidity
27613;BME280;15036;48.094;-1.690;2023-03-14T00:01:32;98952.22;;;15.91;65.83
27613;BME280;15036;48.094;-1.690;2023-03-14T00:03:57;98970.38;;;15.92;66.13
27613;BME280;15036;48.094;-1.690;2023-03-14T00:06:23;98962.59;;;16.34;64.86
27613;BME280;15036;48.094;-1.690;2023-03-14T00:08:48;98972.31;;;15.96;65.92
27613;BME280;15036;48.094;-1.690;2023-03-14T00:11:17;98984.72;;;15.58;66.69
27613;BME280;15036;48.094;-1.690;2023-03-14T00:13:42;98985.81;;;15.78;66.08
27613;BME280;15036;48.094;-1.690;2023-03-14T00:16:10;98980.25;;;16.18;64.65
27613;BME280;15036;48.094;-1.690;2023-03-14T00:18:36;98987.16;;;15.95;65.51
27613;BME280;15036;48.094;-1.690;2023-03-14T00:21:03;98991.88;;;15.75;66.12
27613;BME280;15036;48.094;-1.690;2023-03-14T00:23:30;99011.94;;;15.90;65.74
27613;BME280;15036;48.094;-1.690;2023-03-14T00:26:13;99000.38;;;15.73;65.75
27613;BME280;15036;48.094;-1.690;2023-03-14T00:28:40;98997.94;;;15.67;66.43
27613;BME280;15036;48.094;-1.690;2023-03-14T00:31:08;98985.25;;;15.81;65.00
27613;BME280;15036;48.094;-1.690;2023-03-14T00:33:34;99018.25;;;15.66;65.89
27613;BME280;15036;48.094;-1.690;2023-03-14T00:36:02;99017.44;;;15.95;65.38
27613;BME280;15036;48.094;-1.690;2023-03-14T00:38:28;99027.63;;;15.70;65.55
27613;BME280;15036;48.094;-1.690;2023-03-14T00:40:53;99014.41;;;15.61;66.53
27613;BME280;15036;48.094;-1.690;2023-03-14T00:43:20;99038.63;;;15.70;66.24
27613;BME280;15036;48.094;-1.690;2023-03-14T00:45:50;99049.31;;;15.51;66.77
27613;BME280;15036;48.094;-1.690;2023-03-14T00:48:17;99062.47;;;15.34;66.70
27613;BME280;15036;48.094;-1.690;2023-03-14T00:50:43;99068.25;;;15.32;67.58
27613;BME280;15036;48.094;-1.690;2023-03-14T00:53:09;99073.34;;;14.99;68.41
27613;BME280;15036;48.094;-1.690;2023-03-14T00:55:42;99083.19;;;15.61;67.24
27613;BME280;15036;48.094;-1.690;2023-03-14T00:58:09;99092.44;;;15.30;68.26
27613;BME280;15036;48.094;-1.690;2023-03-14T01:00:35;99117.13;;;14.68;70.20
27613;BME280;15036;48.094;-1.690;2023-03-14T01:03:01;99144.50;;;15.00;68.62
27613;BME280;15036;48.094;-1.690;2023-03-14T01:05:26;99169.16;;;14.17;66.68
27613;BME280;15036;48.094;-1.690;2023-03-14T01:07:52;99155.72;;;14.47;64.77
27613;BME280;15036;48.094;-1.690;2023-03-14T01:10:17;99160.13;;;14.48;62.98
27613;BME280;15036;48.094;-1.690;2023-03-14T01:12:43;99229.31;;;14.23;61.58
27613;BME280;15036;48.094;-1.690;2023-03-14T01:15:08;99194.75;;;13.96;60.85
27613;BME280;15036;48.094;-1.690;2023-03-14T01:17:34;99251.34;;;14.02;59.85
27613;BME280;15036;48.094;-1.690;2023-03-14T01:20:00;99203.84;;;14.01;59.91
27613;BME280;15036;48.094;-1.690;2023-03-14T01:22:26;99240.22;;;14.40;59.14
27613;BME280;15036;48.094;-1.690;2023-03-14T01:24:52;99234.75;;;13.91;59.31
27613;BME280;15036;48.094;-1.690;2023-03-14T01:27:17;99264.97;;;13.97;59.00
27613;BME280;15036;48.094;-1.690;2023-03-14T01:29:42;99263.25;;;14.39;58.24
27613;BME280;15036;48.094;-1.690;2023-03-14T01:32:08;99280.56;;;13.91;58.79
27613;BME280;15036;48.094;-1.690;2023-03-14T01:34:33;99286.44;;;14.48;57.92
27613;BME280;15036;48.094;-1.690;2023-03-14T01:36:58;99292.44;;;14.23;58.03
27613;BME280;15036;48.094;-1.690;2023-03-14T01:39:23;99294.22;;;13.64;59.23
27613;BME280;15036;48.094;-1.690;2023-03-14T01:41:49;99308.66;;;13.76;59.40
27613;BME280;15036;48.094;-1.690;2023-03-14T01:44:14;99316.06;;;14.03;58.71
27613;BME280;15036;48.094;-1.690;2023-03-14T01:46:40;99325.06;;;14.20;58.29
27613;BME280;15036;48.094;-1.690;2023-03-14T01:49:28;99327.19;;;13.91;59.23
27613;BME280;15036;48.094;-1.690;2023-03-14T01:51:59;99335.47;;;14.39;58.44
27613;BME280;15036;48.094;-1.690;2023-03-14T01:54:28;99342.25;;;14.32;58.75
27613;BME280;15036;48.094;-1.690;2023-03-14T01:57:02;99351.03;;;13.69;60.85
27613;BME280;15036;48.094;-1.690;2023-03-14T01:59:29;99359.72;;;14.26;60.34
27613;BME280;15036;48.094;-1.690;2023-03-14T02:01:56;99377.81;;;13.45;61.53
27613;BME280;15036;48.094;-1.690;2023-03-14T02:04:22;99380.44;;;13.73;61.02
27613;BME280;15036;48.094;-1.690;2023-03-14T02:07:01;99400.25;;;13.59;61.42
27613;BME280;15036;48.094;-1.690;2023-03-14T02:09:27;99420.25;;;13.76;61.21
27613;BME280;15036;48.094;-1.690;2023-03-14T02:11:53;99416.19;;;13.78;60.96
27613;BME280;15036;48.094;-1.690;2023-03-14T02:14:21;99429.59;;;13.97;60.36
27613;BME280;15036;48.094;-1.690;2023-03-14T02:16:50;99432.66;;;13.62;61.37
27613;BME280;15036;48.094;-1.690;2023-03-14T02:19:16;99458.13;;;14.34;59.97
27613;BME280;15036;48.094;-1.690;2023-03-14T02:21:54;99454.22;;;13.75;62.75
27613;BME280;15036;48.094;-1.690;2023-03-14T02:24:23;99452.00;;;13.22;62.69
27613;BME280;15036;48.094;-1.690;2023-03-14T02:27:11;99464.78;;;13.83;60.61
27613;BME280;15036;48.094;-1.690;2023-03-14T02:29:39;99480.91;;;13.30;60.64
27613;BME280;15036;48.094;-1.690;2023-03-14T02:32:06;99477.53;;;13.56;59.56
27613;BME280;15036;48.094;-1.690;2023-03-14T02:34:31;99494.47;;;13.36;59.96
27613;BME280;15036;48.094;-1.690;2023-03-14T02:36:56;99514.44;;;13.20;60.49
27613;BME280;15036;48.094;-1.690;2023-03-14T02:39:32;99493.31;;;13.49;60.00
27613;BME280;15036;48.094;-1.690;2023-03-14T02:42:00;99491.47;;;13.87;59.48
27613;BME280;15036;48.094;-1.690;2023-03-14T02:44:25;99500.28;;;13.73;59.58
27613;BME280;15036;48.094;-1.690;2023-03-14T02:46:50;99525.44;;;13.37;61.15
27613;BME280;15036;48.094;-1.690;2023-03-14T02:49:16;99545.25;;;12.99;63.97
27613;BME280;15036;48.094;-1.690;2023-03-14T02:51:43;99520.53;;;12.43;62.98
27613;BME280;15036;48.094;-1.690;2023-03-14T02:54:09;99547.94;;;12.19;63.33
27613;BME280;15036;48.094;-1.690;2023-03-14T02:56:34;99514.97;;;12.14;63.19
27613;BME280;15036;48.094;-1.690;2023-03-14T02:59:04;99556.84;;;12.15;64.53
27613;BME280;15036;48.094;-1.690;2023-03-14T03:01:29;99571.72;;;12.31;63.80
27613;BME280;15036;48.094;-1.690;2023-03-14T03:03:54;99560.88;;;12.47;63.18
27613;BME280;15036;48.094;-1.690;2023-03-14T03:06:20;99573.16;;;12.84;62.76
27613;BME280;15036;48.094;-1.690;2023-03-14T03:08:45;99562.41;;;12.94;62.38
27613;BME280;15036;48.094;-1.690;2023-03-14T03:11:11;99572.41;;;12.49;63.33
27613;BME280;15036;48.094;-1.690;2023-03-14T03:13:36;99579.28;;;12.75;62.27
27613;BME280;15036;48.094;-1.690;2023-03-14T03:16:01;99591.31;;;12.62;63.43
27613;BME280;15036;48.094;-1.690;2023-03-14T03:18:27;99583.94;;;13.14;61.66
27613;BME280;15036;48.094;-1.690;2023-03-14T03:20:52;99601.22;;;13.03;62.28
27613;BME280;15036;48.094;-1.690;2023-03-14T03:23:17;99609.56;;;12.96;62.49
27613;BME280;15036;48.094;-1.690;2023-03-14T03:25:47;99626.19;;;12.67;64.27
27613;BME280;15036;48.094;-1.690;2023-03-14T03:28:12;99646.41;;;12.66;64.56
27613;BME280;15036;48.094;-1.690;2023-03-14T03:30:38;99626.94;;;12.28;65.45
27613;BME280;15036;48.094;-1.690;2023-03-14T03:33:04;99643.63;;;11.85;67.66
27613;BME280;15036;48.094;-1.690;2023-03-14T03:35:30;99651.06;;;12.31;67.17
27613;BME280;15036;48.094;-1.690;2023-03-14T03:37:55;99664.47;;;11.97;68.89
27613;BME280;15036;48.094;-1.690;2023-03-14T03:40:20;99675.06;;;11.94;68.87
27613;BME280;15036;48.094;-1.690;2023-03-14T03:42:46;99671.31;;;12.30;67.76
27613;BME280;15036;48.094;-1.690;2023-03-14T03:45:12;99667.13;;;12.15;68.91
27613;BME280;15036;48.094;-1.690;2023-03-14T03:47:37;99679.75;;;12.40;67.54
27613;BME280;15036;48.094;-1.690;2023-03-14T03:50:02;99694.47;;;12.15;68.91
27613;BME280;15036;48.094;-1.690;2023-03-14T03:52:28;99685.94;;;12.35;68.21
27613;BME280;15036;48.094;-1.690;2023-03-14T03:54:53;99693.91;;;12.37;67.74
27613;BME280;15036;48.094;-1.690;2023-03-14T03:57:18;99689.97;;;12.33;67.74
27613;BME280;15036;48.094;-1.690;2023-03-14T03:59:43;99700.88;;;12.09;67.52
27613;BME280;15036;48.094;-1.690;2023-03-14T04:02:09;99703.13;;;12.01;67.58
27613;BME280;15036;48.094;-1.690;2023-03-14T04:04:34;99701.75;;;12.45;66.09
27613;BME280;15036;48.094;-1.690;2023-03-14T04:06:59;99719.38;;;12.26;66.45
27613;BME280;15036;48.094;-1.690;2023-03-14T04:09:24;99723.06;;;11.90;65.26
27613;BME280;15036;48.094;-1.690;2023-03-14T04:11:49;99721.06;;;12.61;63.48
27613;BME280;15036;48.094;-1.690;2023-03-14T04:14:15;99721.00;;;12.15;64.65
27613;BME280;15036;48.094;-1.690;2023-03-14T04:16:40;99722.78;;;11.80;64.52
27613;BME280;15036;48.094;-1.690;2023-03-14T04:19:05;99737.06;;;12.23;63.01
27613;BME280;15036;48.094;-1.690;2023-03-14T04:21:30;99752.94;;;12.03;62.91
27613;BME280;15036;48.094;-1.690;2023-03-14T04:23:56;99746.19;;;12.05;62.44
27613;BME280;15036;48.094;-1.690;2023-03-14T04:26:21;99751.53;;;12.53;59.78
27613;BME280;15036;48.094;-1.690;2023-03-14T04:28:46;99768.94;;;12.17;59.30
27613;BME280;15036;48.094;-1.690;2023-03-14T04:31:16;99752.47;;;12.47;58.13
27613;BME280;15036;48.094;-1.690;2023-03-14T04:33:41;99765.25;;;11.64;59.33
27613;BME280;15036;48.094;-1.690;2023-03-14T04:36:07;99791.50;;;12.43;58.44
27613;BME280;15036;48.094;-1.690;2023-03-14T04:38:32;99794.34;;;12.06;58.78
27613;BME280;15036;48.094;-1.690;2023-03-14T04:40:58;99797.78;;;11.72;59.74
27613;BME280;15036;48.094;-1.690;2023-03-14T04:43:24;99805.25;;;12.25;58.90
27613;BME280;15036;48.094;-1.690;2023-03-14T04:45:50;99819.59;;;12.50;58.47
27613;BME280;15036;48.094;-1.690;2023-03-14T04:48:16;99826.84;;;12.44;58.30
27613;BME280;15036;48.094;-1.690;2023-03-14T04:50:41;99836.16;;;12.55;58.21
27613;BME280;15036;48.094;-1.690;2023-03-14T04:53:06;99855.56;;;13.06;57.03
27613;BME280;15036;48.094;-1.690;2023-03-14T04:55:32;99857.03;;;12.67;58.06
27613;BME280;15036;48.094;-1.690;2023-03-14T04:57:58;99848.34;;;12.82;57.92
27613;BME280;15036;48.094;-1.690;2023-03-14T05:00:23;99841.94;;;12.35;59.13
27613;BME280;15036;48.094;-1.690;2023-03-14T05:02:49;99865.03;;;12.39;58.11
27613;BME280;15036;48.094;-1.690;2023-03-14T05:05:14;99860.94;;;11.64;57.86
27613;BME280;15036;48.094;-1.690;2023-03-14T05:07:39;99859.34;;;11.57;57.63
27613;BME280;15036;48.094;-1.690;2023-03-14T05:10:06;99855.28;;;12.13;56.87
27613;BME280;15036;48.094;-1.690;2023-03-14T05:12:31;99873.84;;;12.41;56.25
27613;BME280;15036;48.094;-1.690;2023-03-14T05:14:56;99865.00;;;12.28;56.75
27613;BME280;15036;48.094;-1.690;2023-03-14T05:17:21;99880.72;;;12.73;55.30
27613;BME280;15036;48.094;-1.690;2023-03-14T05:19:47;99890.66;;;11.36;57.86
27613;BME280;15036;48.094;-1.690;2023-03-14T05:22:12;99901.72;;;11.66;56.93
27613;BME280;15036;48.094;-1.690;2023-03-14T05:24:37;99900.50;;;11.37;57.06
27613;BME280;15036;48.094;-1.690;2023-03-14T05:27:03;99896.56;;;11.94;56.00
27613;BME280;15036;48.094;-1.690;2023-03-14T05:29:29;99897.22;;;12.26;55.38
27613;BME280;15036;48.094;-1.690;2023-03-14T05:31:55;99898.44;;;12.30;55.59
27613;BME280;15036;48.094;-1.690;2023-03-14T05:34:20;99905.22;;;12.68;54.10
27613;BME280;15036;48.094;-1.690;2023-03-14T05:36:45;99909.69;;;12.81;53.53
27613;BME280;15036;48.094;-1.690;2023-03-14T05:39:10;99935.13;;;11.43;56.29
27613;BME280;15036;48.094;-1.690;2023-03-14T05:41:36;99929.63;;;11.74;55.81
27613;BME280;15036;48.094;-1.690;2023-03-14T05:44:01;99936.59;;;12.06;55.30
27613;BME280;15036;48.094;-1.690;2023-03-14T05:46:26;99940.34;;;12.12;55.19
27613;BME280;15036;48.094;-1.690;2023-03-14T05:48:52;99940.16;;;11.71;56.20
27613;BME280;15036;48.094;-1.690;2023-03-14T05:51:17;99951.88;;;11.96;55.54
27613;BME280;15036;48.094;-1.690;2023-03-14T05:53:42;99956.22;;;12.03;54.92
27613;BME280;15036;48.094;-1.690;2023-03-14T05:56:07;99962.94;;;11.40;56.25
27613;BME280;15036;48.094;-1.690;2023-03-14T05:58:33;99972.81;;;11.66;55.51
27613;BME280;15036;48.094;-1.690;2023-03-14T06:01:03;99970.56;;;11.56;55.06
27613;BME280;15036;48.094;-1.690;2023-03-14T06:03:28;99981.22;;;11.64;55.70
27613;BME280;15036;48.094;-1.690;2023-03-14T06:05:53;99991.19;;;11.77;55.53
27613;BME280;15036;48.094;-1.690;2023-03-14T06:08:19;99996.94;;;12.11;54.74
27613;BME280;15036;48.094;-1.690;2023-03-14T06:10:44;99995.50;;;11.42;56.24
27613;BME280;15036;48.094;-1.690;2023-03-14T06:13:09;100005.03;;;11.32;56.33
27613;BME280;15036;48.094;-1.690;2023-03-14T06:15:34;100009.00;;;11.86;55.36
27613;BME280;15036;48.094;-1.690;2023-03-14T06:18:00;100017.25;;;11.55;55.13
27613;BME280;15036;48.094;-1.690;2023-03-14T06:20:26;100016.84;;;12.37;53.20
27613;BME280;15036;48.094;-1.690;2023-03-14T06:22:51;100025.13;;;11.94;54.47
27613;BME280;15036;48.094;-1.690;2023-03-14T06:25:16;100022.09;;;12.38;52.61
27613;BME280;15036;48.094;-1.690;2023-03-14T06:27:41;100026.25;;;12.59;52.36
27613;BME280;15036;48.094;-1.690;2023-03-14T06:30:07;100031.84;;;12.82;52.85
27613;BME280;15036;48.094;-1.690;2023-03-14T06:32:32;100034.94;;;12.19;52.96
27613;BME280;15036;48.094;-1.690;2023-03-14T06:34:58;100036.69;;;11.71;53.96
27613;BME280;15036;48.094;-1.690;2023-03-14T06:37:26;100054.81;;;12.08;52.83
27613;BME280;15036;48.094;-1.690;2023-03-14T06:39:51;100063.25;;;12.07;52.94
27613;BME280;15036;48.094;-1.690;2023-03-14T06:42:16;100063.25;;;12.07;53.67
27613;BME280;15036;48.094;-1.690;2023-03-14T06:44:41;100061.28;;;11.96;52.87
27613;BME280;15036;48.094;-1.690;2023-03-14T06:47:07;100066.66;;;11.84;53.24
27613;BME280;15036;48.094;-1.690;2023-03-14T06:49:32;100084.19;;;12.19;53.03
27613;BME280;15036;48.094;-1.690;2023-03-14T06:51:57;100087.03;;;12.06;52.29
27613;BME280;15036;48.094;-1.690;2023-03-14T06:54:22;100097.19;;;12.24;52.96
27613;BME280;15036;48.094;-1.690;2023-03-14T06:56:48;100103.06;;;12.28;52.31
27613;BME280;15036;48.094;-1.690;2023-03-14T06:59:13;100109.63;;;12.81;51.18
27613;BME280;15036;48.094;-1.690;2023-03-14T07:01:38;100114.72;;;12.16;51.90
27613;BME280;15036;48.094;-1.690;2023-03-14T07:04:05;100131.66;;;12.32;52.12
27613;BME280;15036;48.094;-1.690;2023-03-14T07:06:30;100128.31;;;12.30;52.00
27613;BME280;15036;48.094;-1.690;2023-03-14T07:08:56;100149.75;;;12.51;52.05
27613;BME280;15036;48.094;-1.690;2023-03-14T07:11:21;100138.81;;;12.51;51.01
27613;BME280;15036;48.094;-1.690;2023-03-14T07:13:47;100135.34;;;11.94;52.39
27613;BME280;15036;48.094;-1.690;2023-03-14T07:16:12;100150.91;;;12.18;52.56
27613;BME280;15036;48.094;-1.690;2023-03-14T07:18:37;100160.72;;;11.39;54.42
27613;BME280;15036;48.094;-1.690;2023-03-14T07:21:03;100165.50;;;11.88;53.53
27613;BME280;15036;48.094;-1.690;2023-03-14T07:23:28;100162.47;;;12.20;53.67
27613;BME280;15036;48.094;-1.690;2023-03-14T07:25:55;100177.66;;;11.92;53.12
27613;BME280;15036;48.094;-1.690;2023-03-14T07:28:21;100185.75;;;12.05;53.69
27613;BME280;15036;48.094;-1.690;2023-03-14T07:30:48;100185.59;;;12.25;53.31
27613;BME280;15036;48.094;-1.690;2023-03-14T07:33:13;100183.00;;;11.43;55.18
27613;BME280;15036;48.094;-1.690;2023-03-14T07:35:38;100190.97;;;12.56;52.95
27613;BME280;15036;48.094;-1.690;2023-03-14T07:38:03;100201.91;;;11.88;54.43
27613;BME280;15036;48.094;-1.690;2023-03-14T07:40:29;100206.03;;;11.97;53.80
27613;BME280;15036;48.094;-1.690;2023-03-14T07:42:54;100203.69;;;11.70;54.92
27613;BME280;15036;48.094;-1.690;2023-03-14T07:45:20;100208.50;;;12.05;54.32
27613;BME280;15036;48.094;-1.690;2023-03-14T07:47:45;100210.09;;;12.13;53.28
27613;BME280;15036;48.094;-1.690;2023-03-14T07:50:10;100221.00;;;12.44;53.35
27613;BME280;15036;48.094;-1.690;2023-03-14T07:52:35;100224.66;;;11.82;54.10
27613;BME280;15036;48.094;-1.690;2023-03-14T07:55:02;100236.47;;;12.07;53.93
27613;BME280;15036;48.094;-1.690;2023-03-14T07:57:27;100230.00;;;12.02;53.66
27613;BME280;15036;48.094;-1.690;2023-03-14T07:59:53;100253.97;;;12.31;53.32
27613;BME280;15036;48.094;-1.690;2023-03-14T08:02:18;100267.31;;;11.90;54.01
27613;BME280;15036;48.094;-1.690;2023-03-14T08:04:47;100257.63;;;11.87;53.95
27613;BME280;15036;48.094;-1.690;2023-03-14T08:07:12;100260.78;;;12.47;52.93
27613;BME280;15036;48.094;-1.690;2023-03-14T08:09:37;100271.47;;;12.79;52.66
27613;BME280;15036;48.094;-1.690;2023-03-14T08:12:02;100266.59;;;12.99;51.81
27613;BME280;15036;48.094;-1.690;2023-03-14T08:14:28;100301.94;;;12.34;53.07
27613;BME280;15036;48.094;-1.690;2023-03-14T08:16:54;100291.50;;;12.49;52.86
27613;BME280;15036;48.094;-1.690;2023-03-14T08:19:19;100289.88;;;12.90;51.95
27613;BME280;15036;48.094;-1.690;2023-03-14T08:21:45;100287.47;;;13.00;51.76
27613;BME280;15036;48.094;-1.690;2023-03-14T08:24:11;100301.72;;;12.35;52.28
27613;BME280;15036;48.094;-1.690;2023-03-14T08:26:36;100306.16;;;12.61;51.56
27613;BME280;15036;48.094;-1.690;2023-03-14T08:29:01;100290.28;;;12.45;52.50
27613;BME280;15036;48.094;-1.690;2023-03-14T08:31:30;100308.38;;;12.95;51.79
27613;BME280;15036;48.094;-1.690;2023-03-14T08:33:57;100314.44;;;12.23;51.91
27613;BME280;15036;48.094;-1.690;2023-03-14T08:36:23;100324.50;;;12.29;51.89
27613;BME280;15036;48.094;-1.690;2023-03-14T08:38:48;100320.81;;;12.73;51.54
27613;BME280;15036;48.094;-1.690;2023-03-14T08:41:13;100319.53;;;12.75;50.69
27613;BME280;15036;48.094;-1.690;2023-03-14T08:43:39;100318.78;;;12.62;51.20
27613;BME280;15036;48.094;-1.690;2023-03-14T08:46:04;100336.34;;;12.79;51.14
27613;BME280;15036;48.094;-1.690;2023-03-14T08:48:29;100344.66;;;12.90;50.89
27613;BME280;15036;48.094;-1.690;2023-03-14T08:51:16;100339.50;;;13.07;51.01
27613;BME280;15036;48.094;-1.690;2023-03-14T08:53:41;100365.34;;;12.24;53.00
27613;BME280;15036;48.094;-1.690;2023-03-14T08:56:06;100360.59;;;13.00;51.60
27613;BME280;15036;48.094;-1.690;2023-03-14T08:58:32;100364.63;;;12.97;51.46
27613;BME280;15036;48.094;-1.690;2023-03-14T09:00:57;100365.44;;;13.47;50.21
27613;BME280;15036;48.094;-1.690;2023-03-14T09:03:23;100378.00;;;13.12;51.17
27613;BME280;15036;48.094;-1.690;2023-03-14T09:05:49;100371.72;;;13.30;50.82
27613;BME280;15036;48.094;-1.690;2023-03-14T09:08:14;100377.03;;;13.00;51.37
27613;BME280;15036;48.094;-1.690;2023-03-14T09:10:39;100384.09;;;13.39;51.25
27613;BME280;15036;48.094;-1.690;2023-03-14T09:13:05;100372.59;;;13.05;51.22
27613;BME280;15036;48.094;-1.690;2023-03-14T09:15:30;100386.50;;;13.04;52.14
27613;BME280;15036;48.094;-1.690;2023-03-14T09:17:55;100400.50;;;14.00;50.50
27613;BME280;15036;48.094;-1.690;2023-03-14T09:20:22;100372.72;;;13.17;51.61
27613;BME280;15036;48.094;-1.690;2023-03-14T09:22:47;100382.94;;;13.03;51.21
27613;BME280;15036;48.094;-1.690;2023-03-14T09:25:13;100388.16;;;13.30;50.63
27613;BME280;15036;48.094;-1.690;2023-03-14T09:27:38;100401.69;;;13.07;50.58
27613;BME280;15036;48.094;-1.690;2023-03-14T09:30:03;100412.50;;;12.95;50.82
27613;BME280;15036;48.094;-1.690;2023-03-14T09:32:29;100394.03;;;12.84;50.95
27613;BME280;15036;48.094;-1.690;2023-03-14T09:34:56;100410.53;;;12.77;50.89
27613;BME280;15036;48.094;-1.690;2023-03-14T09:37:21;100409.38;;;13.16;51.05
27613;BME280;15036;48.094;-1.690;2023-03-14T09:39:46;100430.19;;;13.84;49.37
27613;BME280;15036;48.094;-1.690;2023-03-14T09:42:16;100415.19;;;14.05;49.27
27613;BME280;15036;48.094;-1.690;2023-03-14T09:44:46;100415.19;;;13.87;49.42
27613;BME280;15036;48.094;-1.690;2023-03-14T09:47:13;100431.53;;;13.39;49.29
27613;BME280;15036;48.094;-1.690;2023-03-14T09:49:40;100439.13;;;13.80;48.82
27613;BME280;15036;48.094;-1.690;2023-03-14T09:52:17;100447.47;;;13.24;49.55
27613;BME280;15036;48.094;-1.690;2023-03-14T09:54:44;100442.19;;;12.98;50.69
27613;BME280;15036;48.094;-1.690;2023-03-14T09:57:20;100440.59;;;14.66;47.41
27613;BME280;15036;48.094;-1.690;2023-03-14T09:59:46;100456.94;;;14.32;47.92
27613;BME280;15036;48.094;-1.690;2023-03-14T10:02:20;100456.72;;;13.90;49.20
27613;BME280;15036;48.094;-1.690;2023-03-14T10:04:46;100476.56;;;13.92;48.31
27613;BME280;15036;48.094;-1.690;2023-03-14T10:07:16;100460.47;;;13.78;48.76
27613;BME280;15036;48.094;-1.690;2023-03-14T10:09:44;100473.34;;;13.77;48.59
27613;BME280;15036;48.094;-1.690;2023-03-14T10:12:10;100490.06;;;13.94;47.78
27613;BME280;15036;48.094;-1.690;2023-03-14T10:14:37;100477.63;;;13.91;48.80
27613;BME280;15036;48.094;-1.690;2023-03-14T10:17:07;100467.50;;;14.10;48.56
27613;BME280;15036;48.094;-1.690;2023-03-14T10:19:33;100481.34;;;13.79;47.67
27613;BME280;15036;48.094;-1.690;2023-03-14T10:22:00;100478.75;;;13.66;48.66
27613;BME280;15036;48.094;-1.690;2023-03-14T10:24:30;100517.56;;;13.45;50.18
27613;BME280;15036;48.094;-1.690;2023-03-14T10:27:00;100501.31;;;13.43;52.55
27613;BME280;15036;48.094;-1.690;2023-03-14T10:29:27;100496.38;;;13.52;52.25
27613;BME280;15036;48.094;-1.690;2023-03-14T10:31:54;100503.06;;;13.07;53.59
27613;BME280;15036;48.094;-1.690;2023-03-14T10:34:25;100508.94;;;13.10;53.38
27613;BME280;15036;48.094;-1.690;2023-03-14T10:36:55;100507.28;;;13.02;53.27
27613;BME280;15036;48.094;-1.690;2023-03-14T10:39:22;100497.44;;;12.95;52.81
27613;BME280;15036;48.094;-1.690;2023-03-14T10:41:50;100511.38;;;13.49;51.23
27613;BME280;15036;48.094;-1.690;2023-03-14T10:44:18;100519.97;;;13.53;50.95
27613;BME280;15036;48.094;-1.690;2023-03-14T10:46:45;100510.28;;;14.54;49.54
27613;BME280;15036;48.094;-1.690;2023-03-14T10:49:16;100504.13;;;14.88;47.59
27613;BME280;15036;48.094;-1.690;2023-03-14T10:51:48;100505.31;;;14.26;47.48
27613;BME280;15036;48.094;-1.690;2023-03-14T10:54:15;100517.78;;;14.47;47.21
27613;BME280;15036;48.094;-1.690;2023-03-14T10:56:44;100522.59;;;14.99;46.46
27613;BME280;15036;48.094;-1.690;2023-03-14T10:59:11;100521.69;;;14.39;46.78
27613;BME280;15036;48.094;-1.690;2023-03-14T11:12:01;100522.06;;;15.32;44.79
27613;BME280;15036;48.094;-1.690;2023-03-14T11:14:32;100510.56;;;14.64;43.49
27613;BME280;15036;48.094;-1.690;2023-03-14T11:29:41;100509.47;;;15.66;41.58
27613;BME280;15036;48.094;-1.690;2023-03-14T11:32:50;100497.13;;;16.03;40.47
27613;BME280;15036;48.094;-1.690;2023-03-14T11:34:54;100517.28;;;15.69;41.08
27613;BME280;15036;48.094;-1.690;2023-03-14T11:39:47;100512.19;;;15.42;40.73
27613;BME280;15036;48.094;-1.690;2023-03-14T11:42:15;100541.81;;;14.99;40.53
27613;BME280;15036;48.094;-1.690;2023-03-14T11:44:42;100505.88;;;15.53;40.39
27613;BME280;15036;48.094;-1.690;2023-03-14T11:49:54;100522.78;;;15.92;40.38
27613;BME280;15036;48.094;-1.690;2023-03-14T11:52:36;100518.22;;;16.09;40.71
27613;BME280;15036;48.094;-1.690;2023-03-14T11:55:05;100520.25;;;16.02;39.53
27613;BME280;15036;48.094;-1.690;2023-03-14T11:57:32;100511.81;;;15.39;38.53
27613;BME280;15036;48.094;-1.690;2023-03-14T12:00:04;100529.22;;;15.63;38.50
27613;BME280;15036;48.094;-1.690;2023-03-14T12:02:43;100506.72;;;15.89;38.59
27613;BME280;15036;48.094;-1.690;2023-03-14T12:10:07;100536.25;;;15.17;37.97
27613;BME280;15036;48.094;-1.690;2023-03-14T12:12:32;100523.97;;;15.84;36.93
27613;BME280;15036;48.094;-1.690;2023-03-14T12:14:59;100508.50;;;15.95;37.60
27613;BME280;15036;48.094;-1.690;2023-03-14T12:17:25;100538.44;;;15.91;37.71
27613;BME280;15036;48.094;-1.690;2023-03-14T12:20:05;100531.63;;;16.17;36.96
27613;BME280;15036;48.094;-1.690;2023-03-14T12:22:35;100543.59;;;16.34;36.42
27613;BME280;15036;48.094;-1.690;2023-03-14T12:25:05;100536.97;;;16.58;36.82
27613;BME280;15036;48.094;-1.690;2023-03-14T12:27:42;100505.38;;;16.49;36.02
27613;BME280;15036;48.094;-1.690;2023-03-14T12:30:41;100534.00;;;16.13;35.65
27613;BME280;15036;48.094;-1.690;2023-03-14T12:35:36;100508.53;;;15.83;37.02
27613;BME280;15036;48.094;-1.690;2023-03-14T12:38:03;100549.81;;;15.72;37.76
27613;BME280;15036;48.094;-1.690;2023-03-14T12:40:31;100549.69;;;16.01;37.12
27613;BME280;15036;48.094;-1.690;2023-03-14T12:43:00;100556.66;;;16.04;37.63
27613;BME280;15036;48.094;-1.690;2023-03-14T12:50:26;100570.41;;;16.04;37.69
27613;BME280;15036;48.094;-1.690;2023-03-14T12:55:36;100560.22;;;16.27;37.54
27613;BME280;15036;48.094;-1.690;2023-03-14T13:00:51;100564.06;;;16.50;36.36
27613;BME280;15036;48.094;-1.690;2023-03-14T13:03:20;100570.44;;;16.90;35.30
27613;BME280;15036;48.094;-1.690;2023-03-14T13:05:57;100582.00;;;16.75;35.80
27613;BME280;15036;48.094;-1.690;2023-03-14T13:08:33;100574.72;;;16.58;35.77
27613;BME280;15036;48.094;-1.690;2023-03-14T13:10:59;100591.47;;;16.56;36.55
27613;BME280;15036;48.094;-1.690;2023-03-14T13:13:26;100593.88;;;16.53;35.61
27613;BME280;15036;48.094;-1.690;2023-03-14T13:15:55;100574.72;;;16.34;35.94
27613;BME280;15036;48.094;-1.690;2023-03-14T13:19:26;100573.69;;;16.87;33.94
27613;BME280;15036;48.094;-1.690;2023-03-14T13:21:24;100584.66;;;16.47;34.27
27613;BME280;15036;48.094;-1.690;2023-03-14T13:24:00;100580.00;;;16.36;33.98
27613;BME280;15036;48.094;-1.690;2023-03-14T13:26:31;100577.66;;;17.19;34.50
27613;BME280;15036;48.094;-1.690;2023-03-14T13:28:58;100610.59;;;16.97;33.89
27613;BME280;15036;48.094;-1.690;2023-03-14T13:31:24;100572.41;;;17.06;33.01